createdAt,value
2023-01-10T00:00:03.985Z,1006.53
2023-01-10T00:01:01.244Z,1006.56
2023-01-10T00:02:01.141Z,1006.55
2023-01-10T00:03:01.235Z,1006.56
2023-01-10T00:04:01.155Z,1006.55
2023-01-10T00:05:01.200Z,1006.59
2023-01-10T00:06:01.259Z,1006.63
2023-01-10T00:07:01.284Z,1006.67
2023-01-10T00:08:01.286Z,1006.69
2023-01-10T00:09:02.089Z,1006.67
2023-01-10T00:10:01.313Z,1006.71
2023-01-10T00:11:01.092Z,1006.73
2023-01-10T00:12:01.089Z,1006.71
2023-01-10T00:13:01.046Z,1006.76
2023-01-10T00:14:01.080Z,1006.79
2023-01-10T00:15:01.106Z,1006.84
2023-01-10T00:16:01.562Z,1006.79
2023-01-10T00:17:02.142Z,1006.81
2023-01-10T00:18:01.237Z,1006.87
2023-01-10T00:19:01.135Z,1006.86
2023-01-10T00:20:01.810Z,1006.84
2023-01-10T00:21:01.147Z,1006.84
2023-01-10T00:22:01.151Z,1006.86
2023-01-10T00:23:01.180Z,1006.95
2023-01-10T00:24:02.500Z,1006.95
2023-01-10T00:25:01.886Z,1007.02
2023-01-10T00:26:01.888Z,1007.04
2023-01-10T00:27:01.088Z,1007.07
2023-01-10T00:28:01.113Z,1007.06
2023-01-10T00:29:01.197Z,1007.12
2023-01-10T00:30:00.915Z,1007.17
2023-01-10T00:31:00.656Z,1007.14
2023-01-10T00:32:00.549Z,1007.19
2023-01-10T00:33:00.579Z,1007.19
2023-01-10T00:34:00.204Z,1007.21
2023-01-10T00:34:59.895Z,1007.25
2023-01-10T00:35:59.612Z,1007.25
2023-01-10T00:37:01.805Z,1007.31
2023-01-10T00:38:02.174Z,1007.31
2023-01-10T00:39:01.476Z,1007.32
2023-01-10T00:40:01.798Z,1007.33
2023-01-10T00:41:01.071Z,1007.37
2023-01-10T00:42:01.085Z,1007.39
2023-01-10T00:43:01.095Z,1007.43
2023-01-10T00:44:01.110Z,1007.44
2023-01-10T00:45:01.112Z,1007.43
2023-01-10T00:46:00.805Z,1007.47
2023-01-10T00:47:00.494Z,1007.47
2023-01-10T00:48:00.227Z,1007.45
2023-01-10T00:48:59.881Z,1007.49
2023-01-10T00:49:59.572Z,1007.51
2023-01-10T00:51:02.064Z,1007.51
2023-01-10T00:52:00.818Z,1007.52
2023-01-10T00:53:00.636Z,1007.51
2023-01-10T00:54:00.347Z,1007.59
2023-01-10T00:55:00.358Z,1007.6
2023-01-10T00:56:00.045Z,1007.65
2023-01-10T00:56:59.633Z,1007.64
2023-01-10T00:58:01.636Z,1007.69
2023-01-10T00:59:02.142Z,1007.78
2023-01-10T01:00:01.298Z,1007.76
2023-01-10T01:01:01.164Z,1007.78
2023-01-10T01:02:01.093Z,1007.78
2023-01-10T01:03:01.337Z,1007.82
2023-01-10T01:04:01.160Z,1007.81
2023-01-10T01:05:01.119Z,1007.83
2023-01-10T01:06:01.139Z,1007.84
2023-01-10T01:07:01.168Z,1007.94
2023-01-10T01:08:01.135Z,1007.99
2023-01-10T01:09:01.146Z,1008.01
2023-01-10T01:10:01.152Z,1008.03
2023-01-10T01:11:01.158Z,1008.08
2023-01-10T01:12:01.056Z,1008.08
2023-01-10T01:13:01.075Z,1008.08
2023-01-10T01:14:01.079Z,1008.06
2023-01-10T01:15:01.479Z,1008.05
2023-01-10T01:16:02.937Z,1008.1
2023-01-10T01:17:02.069Z,1008.16
2023-01-10T01:18:02.562Z,1008.16
2023-01-10T01:19:01.123Z,1008.15
2023-01-10T01:20:01.173Z,1008.14
2023-01-10T01:21:04.859Z,1008.18
2023-01-10T01:22:01.122Z,1008.17
2023-01-10T01:23:01.130Z,1008.23
2023-01-10T01:24:01.145Z,1008.19
2023-01-10T01:25:01.139Z,1008.23
2023-01-10T01:26:08.507Z,1008.26
2023-01-10T01:27:01.449Z,1008.24
2023-01-10T01:28:01.157Z,1008.28
2023-01-10T01:29:01.069Z,1008.33
2023-01-10T01:30:01.070Z,1008.33
2023-01-10T01:31:10.760Z,1008.37
2023-01-10T01:32:01.322Z,1008.38
2023-01-10T01:33:01.495Z,1008.35
2023-01-10T01:34:01.110Z,1008.38
2023-01-10T01:35:01.792Z,1008.41
2023-01-10T01:36:14.460Z,1008.43
2023-01-10T01:37:01.854Z,1008.42
2023-01-10T01:38:01.231Z,1008.46
2023-01-10T01:39:01.143Z,1008.46
2023-01-10T01:40:01.724Z,1008.42
2023-01-10T01:41:15.927Z,1008.46
2023-01-10T01:42:01.544Z,1008.47
2023-01-10T01:43:01.157Z,1008.47
2023-01-10T01:44:01.845Z,1008.47
2023-01-10T01:45:00.890Z,1008.5
2023-01-10T01:46:01.153Z,1008.53
2023-01-10T01:47:01.074Z,1008.51
2023-01-10T01:48:01.165Z,1008.57
2023-01-10T01:49:01.105Z,1008.57
2023-01-10T01:50:01.179Z,1008.57
2023-01-10T01:51:01.264Z,1008.62
2023-01-10T01:52:01.118Z,1008.6
2023-01-10T01:53:01.196Z,1008.56
2023-01-10T01:54:01.126Z,1008.58
2023-01-10T01:55:01.145Z,1008.62
2023-01-10T01:56:01.174Z,1008.64
2023-01-10T01:57:01.452Z,1008.62
2023-01-10T01:58:01.447Z,1008.65
2023-01-10T01:59:01.434Z,1008.63
2023-01-10T02:00:02.617Z,1008.65
2023-01-10T02:01:01.219Z,1008.62
2023-01-10T02:02:01.101Z,1008.63
2023-01-10T02:03:03.404Z,1008.64
2023-01-10T02:04:01.135Z,1008.69
2023-01-10T02:05:01.089Z,1008.73
2023-01-10T02:06:01.062Z,1008.69
2023-01-10T02:07:01.453Z,1008.72
2023-01-10T02:08:01.481Z,1008.72
2023-01-10T02:09:01.496Z,1008.74
2023-01-10T02:10:01.139Z,1008.75
2023-01-10T02:11:01.931Z,1008.74
2023-01-10T02:12:01.533Z,1008.81
2023-01-10T02:13:01.133Z,1008.79
2023-01-10T02:14:02.051Z,1008.87
2023-01-10T02:15:02.614Z,1008.84
2023-01-10T02:16:01.602Z,1008.89
2023-01-10T02:17:01.073Z,1008.86
2023-01-10T02:18:01.228Z,1008.9
2023-01-10T02:19:01.146Z,1008.87
2023-01-10T02:20:01.091Z,1008.92
2023-01-10T02:21:01.089Z,1008.9
2023-01-10T02:22:01.096Z,1008.91
2023-01-10T02:23:02.001Z,1008.92
2023-01-10T02:24:01.244Z,1008.94
2023-01-10T02:25:01.485Z,1008.9
2023-01-10T02:26:02.179Z,1008.86
2023-01-10T02:27:01.126Z,1008.9
2023-01-10T02:28:01.170Z,1008.91
2023-01-10T02:29:01.162Z,1008.9
2023-01-10T02:30:01.198Z,1008.9
2023-01-10T02:31:01.242Z,1008.89
2023-01-10T02:32:01.161Z,1008.89
2023-01-10T02:33:05.305Z,1008.93
2023-01-10T02:34:01.093Z,1008.89
2023-01-10T02:35:01.115Z,1008.89
2023-01-10T02:36:01.096Z,1008.89
2023-01-10T02:37:01.062Z,1008.97
2023-01-10T02:38:01.154Z,1008.98
2023-01-10T02:39:01.136Z,1009.01
2023-01-10T02:40:01.120Z,1009.01
2023-01-10T02:41:01.115Z,1008.99
2023-01-10T02:42:01.436Z,1009.01
2023-01-10T02:43:01.760Z,1008.98
2023-01-10T02:44:02.949Z,1009.01
2023-01-10T02:45:01.444Z,1008.95
2023-01-10T02:46:01.060Z,1008.96
2023-01-10T02:47:01.160Z,1009.05
2023-01-10T02:48:01.255Z,1008.99
2023-01-10T02:49:01.991Z,1008.98
2023-01-10T02:50:01.645Z,1009.07
2023-01-10T02:51:00.662Z,1009.06
2023-01-10T02:52:00.359Z,1009.09
2023-01-10T02:53:00.094Z,1009.07
2023-01-10T02:54:00.120Z,1009.09
2023-01-10T02:54:59.761Z,1009.08
2023-01-10T02:56:01.746Z,1009.11
2023-01-10T02:57:01.063Z,1009.11
2023-01-10T02:58:01.386Z,1009.14
2023-01-10T02:59:01.392Z,1009.16
2023-01-10T03:00:02.718Z,1009.17
2023-01-10T03:01:02.094Z,1009.19
2023-01-10T03:02:02.719Z,1009.24
2023-01-10T03:03:01.357Z,1009.21
2023-01-10T03:04:01.152Z,1009.25
2023-01-10T03:05:00.954Z,1009.28
2023-01-10T03:06:00.664Z,1009.25
2023-01-10T03:07:04.554Z,1009.31
2023-01-10T03:08:01.381Z,1009.31
2023-01-10T03:09:04.801Z,1009.28
2023-01-10T03:10:02.305Z,1009.32
2023-01-10T03:11:01.880Z,1009.35
2023-01-10T03:12:08.479Z,1009.34
2023-01-10T03:13:01.483Z,1009.36
2023-01-10T03:14:01.634Z,1009.37
2023-01-10T03:15:01.139Z,1009.43
2023-01-10T03:16:01.221Z,1009.39
2023-01-10T03:17:11.200Z,1009.48
2023-01-10T03:18:01.531Z,1009.49
2023-01-10T03:19:01.055Z,1009.48
2023-01-10T03:20:01.173Z,1009.57
2023-01-10T03:21:01.168Z,1009.58
2023-01-10T03:22:14.380Z,1009.62
2023-01-10T03:23:04.236Z,1009.64
2023-01-10T03:24:01.151Z,1009.65
2023-01-10T03:25:01.415Z,1009.72
2023-01-10T03:26:01.413Z,1009.75
2023-01-10T03:27:16.943Z,1009.79
2023-01-10T03:28:02.325Z,1009.77
2023-01-10T03:29:01.245Z,1009.84
2023-01-10T03:30:01.133Z,1009.79
2023-01-10T03:31:01.181Z,1009.88
2023-01-10T03:32:01.942Z,1009.9
2023-01-10T03:33:01.949Z,1009.89
2023-01-10T03:34:01.776Z,1009.93
2023-01-10T03:35:01.231Z,1009.96
2023-01-10T03:36:01.223Z,1009.96
2023-01-10T03:37:01.274Z,1009.95
2023-01-10T03:38:01.453Z,1009.94
2023-01-10T03:39:01.931Z,1009.95
2023-01-10T03:40:01.159Z,1009.99
2023-01-10T03:41:01.082Z,1010
2023-01-10T03:42:01.093Z,1010.02
2023-01-10T03:43:01.112Z,1009.98
2023-01-10T03:44:01.110Z,1009.99
2023-01-10T03:45:01.110Z,1010.02
2023-01-10T03:46:01.585Z,1010.05
2023-01-10T03:47:01.130Z,1010.07
2023-01-10T03:48:01.523Z,1010.06
2023-01-10T03:49:01.508Z,1010.16
2023-01-10T03:50:01.550Z,1010.17
2023-01-10T03:51:01.252Z,1010.2
2023-01-10T03:52:01.154Z,1010.19
2023-01-10T03:53:01.157Z,1010.28
2023-01-10T03:54:01.184Z,1010.27
2023-01-10T03:55:01.114Z,1010.28
2023-01-10T03:56:01.097Z,1010.33
2023-01-10T03:57:02.746Z,1010.35
2023-01-10T03:58:01.156Z,1010.32
2023-01-10T03:59:01.331Z,1010.36
2023-01-10T04:00:01.053Z,1010.33
2023-01-10T04:01:01.225Z,1010.33
2023-01-10T04:02:01.545Z,1010.44
2023-01-10T04:03:01.153Z,1010.44
2023-01-10T04:04:01.176Z,1010.44
2023-01-10T04:05:01.134Z,1010.43
2023-01-10T04:06:01.184Z,1010.5
2023-01-10T04:07:01.958Z,1010.5
2023-01-10T04:08:01.529Z,1010.57
2023-01-10T04:09:01.275Z,1010.59
2023-01-10T04:10:02.763Z,1010.62
2023-01-10T04:11:01.093Z,1010.59
2023-01-10T04:12:01.075Z,1010.6
2023-01-10T04:13:01.407Z,1010.68
2023-01-10T04:14:01.178Z,1010.67
2023-01-10T04:15:01.101Z,1010.66
2023-01-10T04:16:01.145Z,1010.7
2023-01-10T04:17:01.129Z,1010.74
2023-01-10T04:18:01.117Z,1010.71
2023-01-10T04:19:01.148Z,1010.76
2023-01-10T04:20:01.128Z,1010.83
2023-01-10T04:21:01.167Z,1010.85
2023-01-10T04:22:01.148Z,1010.84
2023-01-10T04:23:01.139Z,1010.88
2023-01-10T04:24:01.142Z,1010.84
2023-01-10T04:25:01.437Z,1010.86
2023-01-10T04:26:02.632Z,1010.89
2023-01-10T04:27:01.552Z,1010.9
2023-01-10T04:28:01.270Z,1010.94
2023-01-10T04:29:01.077Z,1010.96
2023-01-10T04:30:01.101Z,1010.99
2023-01-10T04:31:01.096Z,1011.04
2023-01-10T04:32:01.351Z,1011.03
2023-01-10T04:33:01.378Z,1011.1
2023-01-10T04:34:01.534Z,1011.1
2023-01-10T04:35:01.384Z,1011.1
2023-01-10T04:36:01.125Z,1011.14
2023-01-10T04:37:01.130Z,1011.17
2023-01-10T04:38:01.143Z,1011.18
2023-01-10T04:39:01.809Z,1011.24
2023-01-10T04:40:01.827Z,1011.2
2023-01-10T04:41:01.728Z,1011.29
2023-01-10T04:42:01.211Z,1011.35
2023-01-10T04:43:02.371Z,1011.33
2023-01-10T04:44:00.863Z,1011.35
2023-01-10T04:45:01.054Z,1011.39
2023-01-10T04:46:00.820Z,1011.34
2023-01-10T04:47:01.201Z,1011.4
2023-01-10T04:48:01.107Z,1011.42
2023-01-10T04:49:01.147Z,1011.44
2023-01-10T04:50:01.117Z,1011.47
2023-01-10T04:51:01.366Z,1011.47
2023-01-10T04:52:01.198Z,1011.46
2023-01-10T04:53:02.006Z,1011.53
2023-01-10T04:54:01.176Z,1011.55
2023-01-10T04:55:01.046Z,1011.59
2023-01-10T04:56:00.740Z,1011.56
2023-01-10T04:57:00.318Z,1011.61
2023-01-10T04:58:05.377Z,1011.64
2023-01-10T04:59:01.163Z,1011.69
2023-01-10T05:00:01.293Z,1011.68
2023-01-10T05:01:01.329Z,1011.67
2023-01-10T05:02:01.447Z,1011.76
2023-01-10T05:03:07.271Z,1011.72
2023-01-10T05:04:01.109Z,1011.75
2023-01-10T05:05:01.065Z,1011.73
2023-01-10T05:06:01.117Z,1011.73
2023-01-10T05:07:01.211Z,1011.74
2023-01-10T05:08:09.777Z,1011.73
2023-01-10T05:09:01.881Z,1011.74
2023-01-10T05:10:02.053Z,1011.77
2023-01-10T05:11:01.174Z,1011.77
2023-01-10T05:12:01.153Z,1011.79
2023-01-10T05:13:11.649Z,1011.8
2023-01-10T05:14:01.261Z,1011.83
2023-01-10T05:15:01.205Z,1011.83
2023-01-10T05:16:01.470Z,1011.84
2023-01-10T05:17:01.194Z,1011.84
2023-01-10T05:18:13.681Z,1011.86
2023-01-10T05:19:02.001Z,1011.87
2023-01-10T05:20:01.431Z,1011.87
2023-01-10T05:21:00.800Z,1011.89
2023-01-10T05:22:01.320Z,1011.92
2023-01-10T05:23:16.291Z,1011.89
2023-01-10T05:24:02.171Z,1011.91
2023-01-10T05:25:02.060Z,1011.97
2023-01-10T05:26:01.365Z,1011.95
2023-01-10T05:27:01.154Z,1012
2023-01-10T05:28:01.158Z,1012.05
2023-01-10T05:29:01.160Z,1012.09
2023-01-10T05:30:01.175Z,1012.12
2023-01-10T05:31:01.370Z,1012.15
2023-01-10T05:32:02.475Z,1012.18
2023-01-10T05:33:02.081Z,1012.15
2023-01-10T05:34:01.070Z,1012.22
2023-01-10T05:35:00.793Z,1012.27
2023-01-10T05:36:00.543Z,1012.22
2023-01-10T05:37:00.226Z,1012.27
2023-01-10T05:37:59.874Z,1012.23
2023-01-10T05:38:59.469Z,1012.27
2023-01-10T05:40:02.139Z,1012.22
2023-01-10T05:41:02.235Z,1012.38
2023-01-10T05:42:01.970Z,1012.39
2023-01-10T05:43:01.462Z,1012.4
2023-01-10T05:44:01.150Z,1012.37
2023-01-10T05:45:01.279Z,1012.45
2023-01-10T05:46:01.315Z,1012.48
2023-01-10T05:47:01.102Z,1012.44
2023-01-10T05:48:01.264Z,1012.48
2023-01-10T05:49:01.186Z,1012.47
2023-01-10T05:50:00.695Z,1012.5
2023-01-10T05:51:00.323Z,1012.5
2023-01-10T05:52:00.040Z,1012.54
2023-01-10T05:52:59.674Z,1012.54
2023-01-10T05:54:01.761Z,1012.6
2023-01-10T05:55:01.309Z,1012.66
2023-01-10T05:56:08.122Z,1012.66
2023-01-10T05:57:01.128Z,1012.7
2023-01-10T05:58:01.165Z,1012.7
2023-01-10T05:59:07.987Z,1012.72
2023-01-10T06:00:03.669Z,1012.72
2023-01-10T06:01:01.584Z,1012.74
2023-01-10T06:02:01.054Z,1012.84
2023-01-10T06:03:01.212Z,1012.82
2023-01-10T06:04:00.846Z,1012.84
2023-01-10T06:05:01.075Z,1012.84
2023-01-10T06:06:01.106Z,1012.83
2023-01-10T06:07:01.114Z,1012.9
2023-01-10T06:08:01.232Z,1012.87
2023-01-10T06:09:01.049Z,1012.89
2023-01-10T06:10:01.182Z,1012.9
2023-01-10T06:11:01.121Z,1012.93
2023-01-10T06:12:01.111Z,1012.95
2023-01-10T06:13:01.133Z,1012.95
2023-01-10T06:14:01.127Z,1012.95
2023-01-10T06:15:01.133Z,1012.99
2023-01-10T06:16:01.608Z,1013.02
2023-01-10T06:17:01.801Z,1013.04
2023-01-10T06:18:04.555Z,1013.03
2023-01-10T06:19:01.887Z,1013.06
2023-01-10T06:20:02.011Z,1013.07
2023-01-10T06:21:01.399Z,1013.03
2023-01-10T06:22:02.036Z,1013.11
2023-01-10T06:23:01.092Z,1013.07
2023-01-10T06:24:01.091Z,1013.13
2023-01-10T06:25:02.524Z,1013.13
2023-01-10T06:26:02.555Z,1013.13
2023-01-10T06:27:01.519Z,1013.16
2023-01-10T06:28:02.186Z,1013.15
2023-01-10T06:29:01.138Z,1013.15
2023-01-10T06:30:01.144Z,1013.15
2023-01-10T06:31:01.157Z,1013.22
2023-01-10T06:32:01.225Z,1013.21
2023-01-10T06:33:01.102Z,1013.16
2023-01-10T06:34:00.877Z,1013.16
2023-01-10T06:35:01.441Z,1013.14
2023-01-10T06:36:01.102Z,1013.23
2023-01-10T06:37:01.574Z,1013.25
2023-01-10T06:38:01.476Z,1013.3
2023-01-10T06:39:01.126Z,1013.32
2023-01-10T06:40:00.803Z,1013.35
2023-01-10T06:41:01.162Z,1013.32
2023-01-10T06:42:01.479Z,1013.35
2023-01-10T06:43:01.505Z,1013.36
2023-01-10T06:44:02.416Z,1013.43
2023-01-10T06:45:01.133Z,1013.48
2023-01-10T06:46:01.169Z,1013.54
2023-01-10T06:47:01.128Z,1013.5
2023-01-10T06:48:01.103Z,1013.59
2023-01-10T06:49:05.777Z,1013.62
2023-01-10T06:50:01.429Z,1013.61
2023-01-10T06:51:01.541Z,1013.64
2023-01-10T06:52:01.208Z,1013.65
2023-01-10T06:53:01.209Z,1013.67
2023-01-10T06:54:08.793Z,1013.72
2023-01-10T06:55:01.079Z,1013.76
2023-01-10T06:56:01.139Z,1013.74
2023-01-10T06:57:01.200Z,1013.8
2023-01-10T06:58:01.122Z,1013.83
2023-01-10T06:59:11.011Z,1013.87
2023-01-10T07:00:01.511Z,1013.85
2023-01-10T07:01:00.944Z,1013.93
2023-01-10T07:02:01.297Z,1013.91
2023-01-10T07:03:01.196Z,1013.94
2023-01-10T07:04:14.732Z,1013.91
2023-01-10T07:05:01.887Z,1013.9
2023-01-10T07:06:00.676Z,1013.94
2023-01-10T07:07:00.425Z,1013.94
2023-01-10T07:08:00.260Z,1013.98
2023-01-10T07:08:59.930Z,1013.96
2023-01-10T07:09:59.628Z,1014.02
2023-01-10T07:11:01.270Z,1014.06
2023-01-10T07:12:02.030Z,1014.05
2023-01-10T07:13:01.602Z,1014.06
2023-01-10T07:14:01.041Z,1014.08
2023-01-10T07:15:00.756Z,1014.13
2023-01-10T07:16:00.733Z,1014.13
2023-01-10T07:17:00.398Z,1014.17
2023-01-10T07:18:00.123Z,1014.15
2023-01-10T07:18:59.789Z,1014.22
2023-01-10T07:20:01.533Z,1014.22
2023-01-10T07:21:01.197Z,1014.24
2023-01-10T07:22:01.226Z,1014.27
2023-01-10T07:23:01.255Z,1014.25
2023-01-10T07:24:02.762Z,1014.3
2023-01-10T07:25:02.508Z,1014.28
2023-01-10T07:26:01.098Z,1014.24
2023-01-10T07:27:01.142Z,1014.29
2023-01-10T07:28:01.101Z,1014.33
2023-01-10T07:29:01.080Z,1014.34
2023-01-10T07:30:01.107Z,1014.34
2023-01-10T07:31:01.253Z,1014.32
2023-01-10T07:32:01.267Z,1014.35
2023-01-10T07:33:01.365Z,1014.37
2023-01-10T07:34:01.407Z,1014.39
2023-01-10T07:35:01.277Z,1014.4
2023-01-10T07:36:01.223Z,1014.46
2023-01-10T07:37:01.142Z,1014.48
2023-01-10T07:38:01.136Z,1014.49
2023-01-10T07:39:01.150Z,1014.54
2023-01-10T07:40:01.170Z,1014.6
2023-01-10T07:41:00.967Z,1014.59
2023-01-10T07:42:01.456Z,1014.62
2023-01-10T07:43:01.463Z,1014.69
2023-01-10T07:44:02.145Z,1014.72
2023-01-10T07:45:01.751Z,1014.71
2023-01-10T07:46:02.090Z,1014.75
2023-01-10T07:47:01.112Z,1014.77
2023-01-10T07:48:01.551Z,1014.78
2023-01-10T07:49:01.115Z,1014.77
2023-01-10T07:50:01.223Z,1014.8
2023-01-10T07:51:02.471Z,1014.81
2023-01-10T07:52:01.461Z,1014.86
2023-01-10T07:53:01.142Z,1014.87
2023-01-10T07:54:01.153Z,1014.88
2023-01-10T07:55:01.565Z,1014.88
2023-01-10T07:56:01.272Z,1014.86
2023-01-10T07:57:02.146Z,1014.91
2023-01-10T07:58:01.165Z,1014.94
2023-01-10T07:59:02.002Z,1014.96
2023-01-10T08:00:01.502Z,1014.92
2023-01-10T08:01:00.977Z,1014.94
2023-01-10T08:02:01.104Z,1014.95
2023-01-10T08:03:01.274Z,1014.97
2023-01-10T08:04:01.102Z,1014.95
2023-01-10T08:05:01.493Z,1015.01
2023-01-10T08:06:01.095Z,1015.01
2023-01-10T08:07:00.800Z,1015.02
2023-01-10T08:08:00.522Z,1015.06
2023-01-10T08:09:00.207Z,1015.06
2023-01-10T08:09:59.858Z,1015.09
2023-01-10T08:10:59.743Z,1015.08
2023-01-10T08:12:01.497Z,1015.08
2023-01-10T08:13:13.137Z,1015.11
2023-01-10T08:14:01.324Z,1015.05
2023-01-10T08:15:01.951Z,1015.07
2023-01-10T08:16:02.086Z,1015.09
2023-01-10T08:17:01.152Z,1015.11
2023-01-10T08:18:02.866Z,1015.12
2023-01-10T08:19:04.498Z,1015.15
2023-01-10T08:20:01.043Z,1015.17
2023-01-10T08:21:00.799Z,1015.26
2023-01-10T08:22:00.398Z,1015.26
2023-01-10T08:23:00.101Z,1015.24
2023-01-10T08:23:59.678Z,1015.3
2023-01-10T08:25:01.685Z,1015.37
2023-01-10T08:26:01.138Z,1015.36
2023-01-10T08:27:01.137Z,1015.43
2023-01-10T08:28:01.151Z,1015.44
2023-01-10T08:29:01.800Z,1015.51
2023-01-10T08:30:01.781Z,1015.51
2023-01-10T08:31:01.690Z,1015.55
2023-01-10T08:32:00.040Z,1015.56
2023-01-10T08:32:59.638Z,1015.55
2023-01-10T08:34:01.281Z,1015.54
2023-01-10T08:35:03.617Z,1015.59
2023-01-10T08:36:01.946Z,1015.53
2023-01-10T08:37:01.063Z,1015.56
2023-01-10T08:38:01.120Z,1015.57
2023-01-10T08:39:01.119Z,1015.56
2023-01-10T08:40:05.826Z,1015.57
2023-01-10T08:41:01.974Z,1015.54
2023-01-10T08:42:01.292Z,1015.55
2023-01-10T08:43:01.307Z,1015.62
2023-01-10T08:44:01.189Z,1015.62
2023-01-10T08:45:08.169Z,1015.64
2023-01-10T08:46:01.064Z,1015.69
2023-01-10T08:47:01.254Z,1015.75
2023-01-10T08:48:01.071Z,1015.74
2023-01-10T08:49:01.137Z,1015.78
2023-01-10T08:50:11.570Z,1015.84
2023-01-10T08:51:01.853Z,1015.84
2023-01-10T08:52:01.107Z,1015.89
2023-01-10T08:53:01.152Z,1015.85
2023-01-10T08:54:01.124Z,1015.95
2023-01-10T08:55:15.188Z,1015.9
2023-01-10T08:56:01.139Z,1015.92
2023-01-10T08:57:01.270Z,1015.95
2023-01-10T08:58:01.278Z,1016
2023-01-10T08:59:01.293Z,1016.01
2023-01-10T09:00:16.819Z,1016
2023-01-10T09:01:01.316Z,1016.07
2023-01-10T09:01:59.904Z,1016.07
2023-01-10T09:02:59.707Z,1016.09
2023-01-10T09:04:01.495Z,1016.09
2023-01-10T09:05:01.204Z,1016.12
2023-01-10T09:06:01.874Z,1016.16
2023-01-10T09:07:01.924Z,1016.2
2023-01-10T09:08:01.146Z,1016.2
2023-01-10T09:09:01.163Z,1016.17
2023-01-10T09:10:01.174Z,1016.18
2023-01-10T09:11:01.218Z,1016.2
2023-01-10T09:12:01.154Z,1016.28
2023-01-10T09:13:02.146Z,1016.27
2023-01-10T09:14:02.414Z,1016.26
2023-01-10T09:15:01.562Z,1016.26
2023-01-10T09:16:01.257Z,1016.28
2023-01-10T09:17:01.175Z,1016.33
2023-01-10T09:18:01.524Z,1016.28
2023-01-10T09:19:01.994Z,1016.27
2023-01-10T09:20:01.485Z,1016.27
2023-01-10T09:21:00.812Z,1016.31
2023-01-10T09:22:00.471Z,1016.23
2023-01-10T09:23:00.196Z,1016.32
2023-01-10T09:23:59.864Z,1016.31
2023-01-10T09:25:01.510Z,1016.34
2023-01-10T09:26:01.608Z,1016.41
2023-01-10T09:27:01.924Z,1016.34
2023-01-10T09:28:01.387Z,1016.4
2023-01-10T09:29:01.062Z,1016.36
2023-01-10T09:30:01.164Z,1016.35
2023-01-10T09:31:01.233Z,1016.34
2023-01-10T09:31:59.567Z,1016.31
2023-01-10T09:33:05.037Z,1016.4
2023-01-10T09:34:02.507Z,1016.4
2023-01-10T09:35:01.097Z,1016.44
2023-01-10T09:36:01.320Z,1016.42
2023-01-10T09:37:02.329Z,1016.45
2023-01-10T09:38:01.124Z,1016.5
2023-01-10T09:39:01.101Z,1016.53
2023-01-10T09:40:01.105Z,1016.48
2023-01-10T09:41:00.896Z,1016.53
2023-01-10T09:42:01.133Z,1016.54
2023-01-10T09:43:01.125Z,1016.56
2023-01-10T09:44:01.538Z,1016.57
2023-01-10T09:45:01.154Z,1016.55
2023-01-10T09:46:01.243Z,1016.57
2023-01-10T09:47:05.932Z,1016.63
2023-01-10T09:48:01.164Z,1016.6
2023-01-10T09:49:01.060Z,1016.58
2023-01-10T09:50:01.061Z,1016.58
2023-01-10T09:51:01.764Z,1016.6
2023-01-10T09:52:04.585Z,1016.6
2023-01-10T09:53:01.783Z,1016.62
2023-01-10T09:54:11.341Z,1016.58
2023-01-10T09:55:01.852Z,1016.59
2023-01-10T09:56:01.476Z,1016.57
2023-01-10T09:57:01.244Z,1016.58
2023-01-10T09:58:01.132Z,1016.59
2023-01-10T09:59:01.111Z,1016.67
2023-01-10T10:00:01.131Z,1016.68
2023-01-10T10:01:01.176Z,1016.71
2023-01-10T10:01:59.757Z,1016.67
2023-01-10T10:03:01.521Z,1016.69
2023-01-10T10:04:01.411Z,1016.7
2023-01-10T10:05:02.076Z,1016.65
2023-01-10T10:06:12.151Z,1016.7
2023-01-10T10:07:02.282Z,1016.7
2023-01-10T10:08:01.204Z,1016.66
2023-01-10T10:09:00.869Z,1016.72
2023-01-10T10:10:00.561Z,1016.63
2023-01-10T10:11:00.282Z,1016.67
2023-01-10T10:11:59.961Z,1016.75
2023-01-10T10:12:59.665Z,1016.68
2023-01-10T10:14:01.672Z,1016.73
2023-01-10T10:15:01.380Z,1016.79
2023-01-10T10:16:02.164Z,1016.82
2023-01-10T10:17:01.165Z,1016.87
2023-01-10T10:18:01.145Z,1016.85
2023-01-10T10:19:01.149Z,1016.86
2023-01-10T10:20:01.148Z,1016.88
2023-01-10T10:21:00.763Z,1016.83
2023-01-10T10:22:00.449Z,1016.87
2023-01-10T10:23:00.151Z,1016.81
2023-01-10T10:23:59.820Z,1016.87
2023-01-10T10:25:01.491Z,1016.84
2023-01-10T10:26:02.513Z,1016.82
2023-01-10T10:27:01.087Z,1016.82
2023-01-10T10:28:01.077Z,1016.77
2023-01-10T10:29:01.110Z,1016.8
2023-01-10T10:30:01.109Z,1016.8
2023-01-10T10:31:04.664Z,1016.76
2023-01-10T10:32:00.424Z,1016.77
2023-01-10T10:33:00.297Z,1016.72
2023-01-10T10:33:59.887Z,1016.81
2023-01-10T10:34:59.494Z,1016.79
2023-01-10T10:36:07.687Z,1016.75
2023-01-10T10:37:01.967Z,1016.74
2023-01-10T10:38:01.196Z,1016.75
2023-01-10T10:39:00.797Z,1016.78
2023-01-10T10:40:00.541Z,1016.87
2023-01-10T10:41:09.314Z,1016.84
2023-01-10T10:42:01.599Z,1016.83
2023-01-10T10:43:02.010Z,1016.81
2023-01-10T10:44:01.252Z,1016.83
2023-01-10T10:45:03.714Z,1016.83
2023-01-10T10:46:13.701Z,1016.85
2023-01-10T10:47:01.130Z,1016.8
2023-01-10T10:48:01.384Z,1016.8
2023-01-10T10:49:01.123Z,1016.78
2023-01-10T10:50:01.150Z,1016.76
2023-01-10T10:51:15.936Z,1016.8
2023-01-10T10:52:01.540Z,1016.73
2023-01-10T10:53:01.155Z,1016.79
2023-01-10T10:54:01.206Z,1016.79
2023-01-10T10:55:01.053Z,1016.8
2023-01-10T10:56:01.068Z,1016.83
2023-01-10T10:57:01.078Z,1016.8
2023-01-10T10:58:01.479Z,1016.82
2023-01-10T10:59:01.497Z,1016.82
2023-01-10T11:00:01.507Z,1016.87
2023-01-10T11:01:01.779Z,1016.86
2023-01-10T11:02:01.279Z,1016.86
2023-01-10T11:03:01.108Z,1016.93
2023-01-10T11:04:01.119Z,1016.9
2023-01-10T11:05:01.266Z,1016.92
2023-01-10T11:06:01.076Z,1016.93
2023-01-10T11:07:01.554Z,1016.93
2023-01-10T11:08:01.140Z,1016.96
2023-01-10T11:09:01.646Z,1016.92
2023-01-10T11:10:01.339Z,1016.9
2023-01-10T11:11:01.966Z,1016.89
2023-01-10T11:12:02.298Z,1016.91
2023-01-10T11:13:01.274Z,1016.9
2023-01-10T11:14:00.931Z,1016.97
2023-01-10T11:15:01.475Z,1016.98
2023-01-10T11:16:01.203Z,1017
2023-01-10T11:17:01.091Z,1017
2023-01-10T11:18:01.131Z,1017.05
2023-01-10T11:19:01.237Z,1017.05
2023-01-10T11:20:01.126Z,1017.05
2023-01-10T11:21:01.117Z,1017.1
2023-01-10T11:22:00.809Z,1017.1
2023-01-10T11:23:00.467Z,1017.13
2023-01-10T11:24:00.140Z,1017.13
2023-01-10T11:24:59.825Z,1017.14
2023-01-10T11:26:01.806Z,1017.11
2023-01-10T11:27:01.187Z,1017.17
2023-01-10T11:28:01.800Z,1017.17
2023-01-10T11:29:02.093Z,1017.23
2023-01-10T11:30:01.233Z,1017.17
2023-01-10T11:31:01.074Z,1017.21
2023-01-10T11:32:01.696Z,1017.22
2023-01-10T11:33:01.482Z,1017.25
2023-01-10T11:34:01.107Z,1017.26
2023-01-10T11:35:01.112Z,1017.28
2023-01-10T11:36:01.120Z,1017.28
2023-01-10T11:37:01.119Z,1017.32
2023-01-10T11:38:01.252Z,1017.34
2023-01-10T11:39:01.227Z,1017.28
2023-01-10T11:40:01.180Z,1017.33
2023-01-10T11:41:01.553Z,1017.34
2023-01-10T11:42:02.277Z,1017.31
2023-01-10T11:43:01.231Z,1017.3
2023-01-10T11:44:01.175Z,1017.29
2023-01-10T11:45:01.803Z,1017.28
2023-01-10T11:46:01.781Z,1017.32
2023-01-10T11:47:01.468Z,1017.3
2023-01-10T11:48:01.088Z,1017.34
2023-01-10T11:49:06.767Z,1017.32
2023-01-10T11:50:01.120Z,1017.38
2023-01-10T11:51:01.252Z,1017.35
2023-01-10T11:52:01.123Z,1017.4
2023-01-10T11:53:01.119Z,1017.36
2023-01-10T11:54:01.125Z,1017.35
2023-01-10T11:55:01.221Z,1017.39
2023-01-10T11:56:01.171Z,1017.36
2023-01-10T11:57:01.146Z,1017.39
2023-01-10T11:58:01.147Z,1017.4
2023-01-10T11:59:01.164Z,1017.42
2023-01-10T12:00:01.070Z,1017.36
2023-01-10T12:01:01.110Z,1017.33
2023-01-10T12:02:00.064Z,1017.25
2023-01-10T12:02:59.741Z,1017.27
2023-01-10T12:04:01.798Z,1017.23
2023-01-10T12:05:01.904Z,1017.25
2023-01-10T12:06:02.640Z,1017.26
2023-01-10T12:07:01.661Z,1017.31
2023-01-10T12:08:01.792Z,1017.29